createdAt,value
2022-10-25T00:01:25.165Z,95474.19
2022-10-25T00:03:54.145Z,95492.34
2022-10-25T00:06:22.882Z,95493.75
2022-10-25T00:08:51.496Z,95487.81
2022-10-25T00:11:24.111Z,95476.50
2022-10-25T00:13:53.348Z,95479.44
2022-10-25T00:16:24.357Z,95472.50
2022-10-25T00:18:53.319Z,95491.34
2022-10-25T00:21:22.345Z,95482.31
2022-10-25T00:23:52.458Z,95482.91
2022-10-25T00:26:23.947Z,95471.69
2022-10-25T00:28:55.285Z,95478.41
2022-10-25T00:31:24.836Z,95464.66
2022-10-25T00:33:53.392Z,95454.91
2022-10-25T00:36:24.357Z,95466.25
2022-10-25T00:38:53.731Z,95462.25
2022-10-25T00:41:26.042Z,95456.72
2022-10-25T00:43:55.829Z,95466.66
2022-10-25T00:46:28.464Z,95436.94
2022-10-25T00:49:02.450Z,95463.44
2022-10-25T00:51:36.114Z,95461.38
2022-10-25T00:54:04.271Z,95467.59
2022-10-25T00:56:37.403Z,95464.63
2022-10-25T00:59:12.035Z,95469.34
2022-10-25T01:01:42.273Z,95470.31
2022-10-25T01:04:15.039Z,95465.28
2022-10-25T01:06:46.998Z,95462.97
2022-10-25T01:09:18.598Z,95478.22
2022-10-25T01:11:48.622Z,95448.06
2022-10-25T01:14:18.490Z,95464.03
2022-10-25T01:16:55.391Z,95485.03
2022-10-25T01:19:44.859Z,95483.78
2022-10-25T01:22:17.816Z,95480.81
2022-10-25T01:25:31.163Z,95482.78
2022-10-25T01:28:08.158Z,95446.81
2022-10-25T01:31:10.926Z,95479.63
2022-10-25T01:33:44.298Z,95460.94
2022-10-25T01:36:18.245Z,95453.56
2022-10-25T01:38:52.339Z,95487.63
2022-10-25T01:41:26.415Z,95454.28
2022-10-25T01:44:06.959Z,95464.03
2022-10-25T01:46:45.692Z,95485.50
2022-10-25T01:49:20.899Z,95480.09
2022-10-25T01:51:49.533Z,95485.59
2022-10-25T01:54:21.267Z,95478.75
2022-10-25T01:57:02.060Z,95467.91
2022-10-25T01:59:59.355Z,95481.22
2022-10-25T02:02:34.552Z,95479.75
2022-10-25T02:05:10.970Z,95488.06
2022-10-25T02:07:43.036Z,95471.09
2022-10-25T02:10:18.174Z,95496.13
2022-10-25T02:12:56.371Z,95496.13
2022-10-25T02:15:32.539Z,95469.06
2022-10-25T02:18:06.438Z,95503.13
2022-10-25T02:20:37.424Z,95487.09
2022-10-25T02:23:07.709Z,95454.66
2022-10-25T02:25:39.064Z,95488.59
2022-10-25T02:28:10.406Z,95491.22
2022-10-25T02:30:41.699Z,95493.09
2022-10-25T02:33:12.406Z,95492.91
2022-10-25T02:35:41.056Z,95490.47
2022-10-25T02:38:10.341Z,95485.66
2022-10-25T02:40:39.155Z,95488.66
2022-10-25T02:43:07.608Z,95492.69
2022-10-25T02:45:35.954Z,95493.63
2022-10-25T02:48:04.391Z,95494.22
2022-10-25T02:50:34.678Z,95490.63
2022-10-25T02:53:03.017Z,95442.53
2022-10-25T02:55:31.331Z,95495.59
2022-10-25T02:58:00.382Z,95497.59
2022-10-25T03:00:29.828Z,95493.19
2022-10-25T03:02:59.007Z,95505.75
2022-10-25T03:05:27.750Z,95502.53
2022-10-25T03:07:57.572Z,95488.91
2022-10-25T03:10:25.992Z,95509.34
2022-10-25T03:12:54.508Z,95505.97
2022-10-25T03:15:22.933Z,95507.94
2022-10-25T03:17:51.230Z,95508.59
2022-10-25T03:20:19.615Z,95514.25
2022-10-25T03:22:47.938Z,95513.94
2022-10-25T03:25:18.059Z,95519.94
2022-10-25T03:27:47.053Z,95511.53
2022-10-25T03:30:16.965Z,95501.34
2022-10-25T03:32:45.266Z,95532.88
2022-10-25T03:35:13.701Z,95526.97
2022-10-25T03:37:42.019Z,95522.84
2022-10-25T03:40:11.711Z,95533.41
2022-10-25T03:42:41.739Z,95528.66
2022-10-25T03:45:11.202Z,95533.69
2022-10-25T03:47:40.076Z,95520.00
2022-10-25T03:50:09.572Z,95538.34
2022-10-25T03:52:37.911Z,95545.88
2022-10-25T03:55:07.271Z,95547.44
2022-10-25T03:57:35.912Z,95557.13
2022-10-25T04:00:06.235Z,95552.84
2022-10-25T04:02:34.625Z,95485.47
2022-10-25T04:05:03.378Z,95558.31
2022-10-25T04:07:31.719Z,95556.13
2022-10-25T04:10:00.038Z,95562.09
2022-10-25T04:12:28.287Z,95546.53
2022-10-25T04:14:57.018Z,95556.41
2022-10-25T04:17:26.881Z,95511.13
2022-10-25T04:19:55.370Z,95563.16
2022-10-25T04:22:23.761Z,95563.06
2022-10-25T04:24:53.159Z,95564.09
2022-10-25T04:27:21.488Z,95548.09
2022-10-25T04:29:49.798Z,95561.47
2022-10-25T04:34:53.311Z,95532.03
2022-10-25T04:37:21.672Z,95495.06
2022-10-25T04:39:50.359Z,95566.53
2022-10-25T04:42:19.704Z,95567.59
2022-10-25T04:44:48.470Z,95535.84
2022-10-25T04:47:16.796Z,95557.84
2022-10-25T04:49:45.257Z,95561.66
2022-10-25T04:52:15.042Z,95563.16
2022-10-25T04:54:43.339Z,95563.34
2022-10-25T04:57:11.688Z,95539.69
2022-10-25T04:59:40.070Z,95567.19
2022-10-25T05:02:08.511Z,95571.56
2022-10-25T05:04:36.879Z,95579.16
2022-10-25T05:07:05.315Z,95546.88
2022-10-25T05:09:35.366Z,95575.41
2022-10-25T05:12:03.667Z,95541.41
2022-10-25T05:14:32.315Z,95584.84
2022-10-25T05:17:01.099Z,95573.81
2022-10-25T05:19:29.540Z,95580.81
2022-10-25T05:21:57.903Z,95582.69
2022-10-25T05:24:26.602Z,95571.97
2022-10-25T05:26:56.898Z,95575.13
2022-10-25T05:29:25.880Z,95587.78
2022-10-25T05:31:54.474Z,95584.03
2022-10-25T05:34:23.007Z,95593.31
2022-10-25T05:36:51.670Z,95563.75
2022-10-25T05:39:20.042Z,95583.06
2022-10-25T05:41:49.826Z,95581.97
2022-10-25T05:44:19.660Z,95546.38
2022-10-25T05:46:47.982Z,95582.09
2022-10-25T05:49:16.369Z,95582.53
2022-10-25T05:51:44.761Z,95590.41
2022-10-25T05:54:14.471Z,95599.88
2022-10-25T05:56:44.120Z,95590.69
2022-10-25T05:59:14.816Z,95582.22
2022-10-25T06:01:46.414Z,95596.09
2022-10-25T06:04:15.506Z,95593.66
2022-10-25T06:06:45.579Z,95598.88
2022-10-25T06:09:14.911Z,95606.44
2022-10-25T06:11:43.642Z,95611.06
2022-10-25T06:14:12.750Z,95611.81
2022-10-25T06:16:41.214Z,95608.00
2022-10-25T06:19:12.123Z,95611.50
2022-10-25T06:21:40.595Z,95627.66
2022-10-25T06:24:10.617Z,95601.59
2022-10-25T06:26:38.972Z,95633.38
2022-10-25T06:29:07.426Z,95576.69
2022-10-25T06:31:35.923Z,95638.47
2022-10-25T06:34:04.853Z,95637.13
2022-10-25T06:36:34.623Z,95648.16
2022-10-25T06:39:05.247Z,95654.31
2022-10-25T06:41:37.282Z,95666.28
2022-10-25T06:44:07.431Z,95664.34
2022-10-25T06:47:04.336Z,95676.53
2022-10-25T06:49:25.998Z,95670.56
2022-10-25T06:51:55.907Z,95675.59
2022-10-25T06:54:25.700Z,95694.56
2022-10-25T06:56:54.073Z,95691.81
2022-10-25T06:59:22.459Z,95692.16
2022-10-25T07:01:51.021Z,95701.31
2022-10-25T07:04:19.653Z,95698.28
2022-10-25T07:06:50.156Z,95711.94
2022-10-25T07:09:23.005Z,95702.97
2022-10-25T07:11:51.340Z,95713.81
2022-10-25T07:14:20.118Z,95711.13
2022-10-25T07:16:48.423Z,95696.34
2022-10-25T07:19:16.814Z,95716.44
2022-10-25T07:21:45.336Z,95714.38
2022-10-25T07:24:13.850Z,95715.16
2022-10-25T07:26:43.871Z,95719.66
2022-10-25T07:29:12.277Z,95721.09
2022-10-25T07:31:44.735Z,95720.81
2022-10-25T07:34:15.508Z,95695.66
2022-10-25T07:36:44.119Z,95735.13
2022-10-25T07:39:12.418Z,95734.31
2022-10-25T07:41:40.818Z,95729.44
2022-10-25T07:44:15.939Z,95727.78
2022-10-25T07:46:45.207Z,95720.47
2022-10-25T07:49:13.975Z,95704.69
2022-10-25T07:51:42.723Z,95730.41
2022-10-25T07:54:11.605Z,95725.00
2022-10-25T07:56:39.892Z,95729.91
2022-10-25T07:59:09.695Z,95731.41
2022-10-25T08:01:38.135Z,95730.84
2022-10-25T08:04:06.544Z,95735.38
2022-10-25T08:06:36.344Z,95734.59
2022-10-25T08:09:14.632Z,95739.38
2022-10-25T08:11:48.911Z,95733.34
2022-10-25T08:14:19.261Z,95736.28
2022-10-25T08:16:48.248Z,95726.63
2022-10-25T08:19:16.651Z,95732.78
2022-10-25T08:21:44.956Z,95739.75
2022-10-25T08:24:13.797Z,95736.53
2022-10-25T08:26:42.187Z,95707.50
2022-10-25T08:29:10.675Z,95746.78
2022-10-25T08:31:40.458Z,95715.56
2022-10-25T08:34:09.066Z,95758.00
2022-10-25T08:36:37.940Z,95760.56
2022-10-25T08:39:06.323Z,95760.31
2022-10-25T08:41:48.404Z,95756.69
2022-10-25T08:44:24.719Z,95763.41
2022-10-25T08:47:01.003Z,95766.59
2022-10-25T08:49:37.791Z,95765.25
2022-10-25T08:52:08.489Z,95765.94
2022-10-25T08:54:39.883Z,95741.16
2022-10-25T08:57:17.021Z,95772.25
2022-10-25T08:59:51.234Z,95751.25
2022-10-25T09:02:26.587Z,95767.97
2022-10-25T09:04:55.353Z,95776.84
2022-10-25T09:08:10.149Z,95767.00
2022-10-25T09:10:49.575Z,95773.06
2022-10-25T09:13:27.066Z,95764.81
2022-10-25T09:16:05.385Z,95839.75
2022-10-25T09:18:42.195Z,95787.78
2022-10-25T09:21:22.455Z,95787.25
2022-10-25T09:24:00.679Z,95786.16
2022-10-25T09:26:43.332Z,95740.47
2022-10-25T09:29:22.423Z,95788.84
2022-10-25T09:31:55.210Z,95789.81
2022-10-25T09:34:26.246Z,95645.38
2022-10-25T09:37:00.830Z,95785.72
2022-10-25T09:39:38.924Z,95792.72
2022-10-25T09:42:15.293Z,95791.31
2022-10-25T09:44:48.190Z,95802.72
2022-10-25T09:47:25.331Z,95801.31
2022-10-25T09:50:01.134Z,95785.28
2022-10-25T09:52:36.598Z,95808.94
2022-10-25T09:55:22.275Z,95800.84
2022-10-25T09:57:50.742Z,95774.03
2022-10-25T10:00:19.637Z,95800.31
2022-10-25T10:02:48.185Z,95806.19
2022-10-25T10:05:20.632Z,95809.13
2022-10-25T10:07:50.975Z,95795.28
2022-10-25T10:10:22.634Z,95797.25
2022-10-25T10:12:55.499Z,95807.75
2022-10-25T10:15:28.179Z,95802.28
2022-10-25T10:18:21.792Z,95801.28
2022-10-25T10:21:09.918Z,95805.72
2022-10-25T10:23:46.752Z,95765.91
2022-10-25T10:26:22.904Z,95774.13
2022-10-25T10:28:54.687Z,95783.00
2022-10-25T10:31:23.806Z,95792.09
2022-10-25T10:33:53.555Z,95768.81
2022-10-25T10:36:26.187Z,95766.41
2022-10-25T10:38:55.082Z,95787.59
2022-10-25T10:41:26.969Z,95778.97
2022-10-25T10:44:10.972Z,95738.63
2022-10-25T10:46:44.929Z,95773.75
2022-10-25T10:49:14.833Z,95774.44
2022-10-25T10:51:47.469Z,95733.28
2022-10-25T10:54:30.657Z,95766.03
2022-10-25T10:57:01.371Z,95734.53
2022-10-25T10:59:35.684Z,95793.50
2022-10-25T11:02:23.151Z,95795.28
2022-10-25T11:04:53.759Z,95793.66
2022-10-25T11:07:31.632Z,95734.47
2022-10-25T11:10:26.487Z,95781.94
2022-10-25T11:13:23.051Z,95779.38
2022-10-25T11:16:21.006Z,95791.25
2022-10-25T11:19:00.792Z,95796.22
2022-10-25T11:21:45.766Z,95786.59
2022-10-25T11:24:29.014Z,95794.09
2022-10-25T11:27:05.286Z,95802.75
2022-10-25T11:29:54.669Z,95795.91
2022-10-25T11:32:47.555Z,95802.97
2022-10-25T11:35:35.075Z,95809.41
2022-10-25T11:38:06.407Z,95809.47
2022-10-25T11:40:41.403Z,95805.75
2022-10-25T11:43:30.472Z,95803.19
2022-10-25T11:46:01.978Z,95804.41
2022-10-25T11:48:47.444Z,95791.03
2022-10-25T11:51:28.791Z,95815.44
2022-10-25T11:54:14.158Z,95804.94
2022-10-25T11:56:56.927Z,95807.66
2022-10-25T11:59:35.978Z,95815.19
2022-10-25T12:02:21.787Z,95816.16
2022-10-25T12:05:01.454Z,95827.59
2022-10-25T12:07:36.014Z,95823.28
2022-10-25T12:10:16.493Z,95822.47
2022-10-25T12:12:51.712Z,95818.50
2022-10-25T12:15:24.732Z,95814.13
2022-10-25T12:17:53.876Z,95822.84
2022-10-25T12:20:26.197Z,95818.81
2022-10-25T12:22:58.509Z,95821.56
2022-10-25T12:25:30.839Z,95821.00
2022-10-25T12:28:07.343Z,95789.25
2022-10-25T12:30:36.759Z,95787.63
2022-10-25T12:33:16.865Z,95787.50
2022-10-25T12:35:51.436Z,95807.75
2022-10-25T12:38:27.466Z,95773.75
2022-10-25T12:41:02.234Z,95821.72
2022-10-25T12:43:37.466Z,95821.09
2022-10-25T12:46:25.459Z,95817.47
2022-10-25T12:49:42.237Z,95828.47
2022-10-25T12:52:29.742Z,95821.06
2022-10-25T12:55:24.545Z,95830.44
2022-10-25T12:58:02.676Z,95825.03
2022-10-25T13:00:40.152Z,95781.59
2022-10-25T13:03:55.643Z,95814.41
2022-10-25T13:06:39.270Z,95807.44
2022-10-25T13:09:11.779Z,95815.19
2022-10-25T13:11:43.854Z,95812.28
2022-10-25T13:14:24.583Z,95812.78
2022-10-25T13:16:54.446Z,95802.22
2022-10-25T13:19:49.884Z,95813.50
2022-10-25T13:22:39.810Z,95804.38
2022-10-25T13:25:19.332Z,95809.50
2022-10-25T13:28:26.865Z,95805.06
2022-10-25T13:31:31.205Z,95802.13
2022-10-25T13:34:36.439Z,95804.41
2022-10-25T13:37:07.167Z,95809.69
2022-10-25T13:39:40.454Z,95805.19
2022-10-25T13:42:24.876Z,95809.69
2022-10-25T13:44:56.932Z,95802.69
2022-10-25T13:47:36.966Z,95804.50
2022-10-25T13:53:01.712Z,95805.50
2022-10-25T13:55:36.886Z,95801.56
2022-10-25T13:58:45.816Z,95796.94
2022-10-25T14:01:59.265Z,95799.84
2022-10-25T14:04:41.088Z,95802.41
2022-10-25T14:07:52.428Z,95802.09
2022-10-25T14:10:27.048Z,95796.75
2022-10-25T14:13:07.564Z,95801.69
2022-10-25T14:15:44.792Z,95809.44
2022-10-25T14:18:18.962Z,95768.75
2022-10-25T14:20:49.963Z,95818.44
2022-10-25T14:23:23.378Z,95821.66
2022-10-25T14:25:55.762Z,95818.44
2022-10-25T14:28:26.422Z,95818.94
2022-10-25T14:30:58.463Z,95829.53
2022-10-25T14:33:29.704Z,95791.81
2022-10-25T14:36:08.057Z,95746.06
2022-10-25T14:38:39.937Z,95809.47
2022-10-25T14:41:14.709Z,95817.06
2022-10-25T14:43:43.378Z,95811.75
2022-10-25T14:46:16.859Z,95824.25
2022-10-25T14:48:47.668Z,95799.81
2022-10-25T14:51:21.868Z,95811.34
2022-10-25T14:53:54.494Z,95827.31
2022-10-25T14:56:27.563Z,95820.56
2022-10-25T14:58:57.867Z,95807.66
2022-10-25T15:01:28.179Z,95818.44
2022-10-25T15:03:59.687Z,95814.09
2022-10-25T15:06:32.450Z,95773.31
2022-10-25T15:09:40.764Z,95801.75
2022-10-25T15:12:17.046Z,95804.47
2022-10-25T15:14:47.589Z,95799.09
2022-10-25T15:17:26.957Z,95793.75
2022-10-25T15:20:00.422Z,95814.53
2022-10-25T15:22:30.937Z,95784.94
2022-10-25T15:24:59.602Z,95801.28
2022-10-25T15:27:35.330Z,95807.84
2022-10-25T15:30:05.006Z,95809.50
2022-10-25T15:32:35.116Z,95799.41
2022-10-25T15:35:04.540Z,95818.28
2022-10-25T15:37:32.906Z,95811.78
2022-10-25T15:40:01.504Z,95813.44
2022-10-25T15:42:30.030Z,95824.56
2022-10-25T15:44:58.523Z,95827.56
2022-10-25T15:47:34.491Z,95807.75
2022-10-25T15:50:14.919Z,95828.69
2022-10-25T15:52:43.305Z,95818.44
2022-10-25T15:55:19.887Z,95826.88
2022-10-25T15:57:48.955Z,95817.44
2022-10-25T16:00:24.130Z,95815.28
2022-10-25T16:02:56.109Z,95808.31
2022-10-25T16:05:27.792Z,95811.03
2022-10-25T16:07:56.324Z,95813.53
2022-10-25T16:10:27.238Z,95813.28
2022-10-25T16:12:59.698Z,95814.66
2022-10-25T16:15:28.871Z,95799.38
2022-10-25T16:17:57.437Z,95816.94
2022-10-25T16:20:29.384Z,95817.78
2022-10-25T16:22:58.768Z,95820.03
2022-10-25T16:25:32.214Z,95824.66
2022-10-25T16:28:02.102Z,95825.00
2022-10-25T16:30:36.504Z,95799.44
2022-10-25T16:33:06.775Z,95789.59
2022-10-25T16:35:36.790Z,95833.16
2022-10-25T16:38:07.280Z,95826.16
2022-10-25T16:40:36.283Z,95778.81
2022-10-25T16:43:05.238Z,95826.75
2022-10-25T16:45:37.917Z,95824.59
2022-10-25T16:48:07.325Z,95820.81
2022-10-25T16:50:37.361Z,95826.78
2022-10-25T16:53:08.905Z,95831.16
2022-10-25T16:55:37.338Z,95843.63
2022-10-25T16:58:05.713Z,95832.28
2022-10-25T17:00:36.227Z,95830.13
2022-10-25T17:03:06.254Z,95762.84
2022-10-25T17:05:35.328Z,95825.28
2022-10-25T17:08:06.303Z,95822.03
2022-10-25T17:10:35.180Z,95824.22
2022-10-25T17:13:03.922Z,95779.88
2022-10-25T17:15:33.228Z,95804.38
2022-10-25T17:18:01.885Z,95836.19
2022-10-25T17:20:30.951Z,95831.06
2022-10-25T17:22:59.539Z,95820.84
2022-10-25T17:25:29.974Z,95817.38
2022-10-25T17:27:58.462Z,95835.13
2022-10-25T17:30:27.067Z,95835.13
2022-10-25T17:32:55.476Z,95839.72
2022-10-25T17:35:28.650Z,95839.44
2022-10-25T17:37:58.331Z,95836.75
2022-10-25T17:40:28.728Z,95836.16
2022-10-25T17:42:56.984Z,95834.06
2022-10-25T17:45:25.319Z,95590.84
2022-10-25T17:47:53.976Z,95836.53
2022-10-25T17:50:22.443Z,95832.47
2022-10-25T17:52:52.295Z,95832.00
2022-10-25T17:55:20.748Z,95843.94
2022-10-25T17:57:52.032Z,95835.00
2022-10-25T18:00:20.500Z,95838.81
2022-10-25T18:02:50.864Z,95840.69
2022-10-25T18:05:21.370Z,95840.75
2022-10-25T18:07:50.977Z,95798.75
2022-10-25T18:10:19.792Z,95809.22
2022-10-25T18:12:50.220Z,95843.44
2022-10-25T18:15:19.195Z,95840.22
2022-10-25T18:17:48.229Z,95851.00
2022-10-25T18:20:17.585Z,95841.28
2022-10-25T18:22:46.457Z,95850.47
2022-10-25T18:25:14.807Z,95841.03
2022-10-25T18:27:43.164Z,95841.03
2022-10-25T18:30:14.131Z,95811.91
2022-10-25T18:32:42.476Z,95837.00
2022-10-25T18:35:11.600Z,95840.47
2022-10-25T18:37:40.219Z,95820.25
2022-10-25T18:40:10.296Z,95840.22
2022-10-25T18:42:39.178Z,95827.56
2022-10-25T18:45:08.322Z,95826.44
2022-10-25T18:47:38.355Z,95833.72
2022-10-25T18:50:07.787Z,95822.97
2022-10-25T18:52:36.118Z,95828.38
2022-10-25T18:55:04.676Z,95832.16
2022-10-25T18:57:33.232Z,95576.72
2022-10-25T19:00:02.034Z,95828.97
2022-10-25T19:02:34.120Z,95829.50
2022-10-25T19:07:40.738Z,95818.22
2022-10-25T19:10:09.794Z,95822.53
2022-10-25T19:12:38.055Z,95830.09
2022-10-25T19:15:07.535Z,95811.50
2022-10-25T19:17:35.972Z,95823.59
2022-10-25T19:20:04.766Z,95776.72
2022-10-25T19:22:34.516Z,95818.22
2022-10-25T19:25:02.879Z,95795.03
2022-10-25T19:27:31.169Z,95813.91
2022-10-25T19:29:59.474Z,95819.03
2022-10-25T19:32:27.862Z,95822.84
2022-10-25T19:34:56.181Z,95824.19
2022-10-25T19:37:24.744Z,95822.84
2022-10-25T19:39:56.845Z,95823.34
2022-10-25T19:42:27.350Z,95826.06
2022-10-25T19:44:55.803Z,95807.19
2022-10-25T19:47:24.280Z,95822.00
2022-10-25T19:49:52.671Z,95815.56
2022-10-25T19:52:21.180Z,95813.41
2022-10-25T19:54:50.088Z,95813.13
2022-10-25T19:57:19.900Z,95807.47
2022-10-25T19:59:48.253Z,95817.72
2022-10-25T20:02:16.723Z,95812.88
2022-10-25T20:04:45.299Z,95749.53
2022-10-25T20:07:13.760Z,95817.19
2022-10-25T20:09:42.352Z,95782.13
2022-10-25T20:12:10.904Z,95809.63
2022-10-25T20:14:40.754Z,95812.88
2022-10-25T20:17:09.131Z,95811.78
2022-10-25T20:19:37.522Z,95813.41
2022-10-25T20:22:06.374Z,95813.94
2022-10-25T20:24:34.712Z,95807.47
2022-10-25T20:27:03.543Z,95811.75
2022-10-25T20:29:32.559Z,95815.53
2022-10-25T20:32:02.428Z,95799.38
2022-10-25T20:34:30.867Z,95810.16
2022-10-25T20:36:59.240Z,95761.09
2022-10-25T20:39:27.890Z,95803.94
2022-10-25T20:41:56.232Z,95810.69
2022-10-25T20:44:24.630Z,95809.06
2022-10-25T20:46:53.117Z,95812.53
2022-10-25T20:49:23.083Z,95822.47
2022-10-25T20:51:51.722Z,95813.34
2022-10-25T20:54:20.479Z,95812.78
2022-10-25T20:56:48.790Z,95781.97
2022-10-25T20:59:17.243Z,95811.13
2022-10-25T21:01:46.170Z,95812.75
2022-10-25T21:04:21.822Z,95811.66
2022-10-25T21:07:01.305Z,95829.88
2022-10-25T21:09:29.689Z,95818.06
2022-10-25T21:11:57.995Z,95818.06
2022-10-25T21:14:26.456Z,95740.66
2022-10-25T21:16:55.491Z,95822.91
2022-10-25T21:19:24.007Z,95796.44
2022-10-25T21:21:52.445Z,95811.03
2022-10-25T21:24:22.557Z,95811.81
2022-10-25T21:26:51.779Z,95814.50
2022-10-25T21:29:20.124Z,95812.09
2022-10-25T21:31:49.563Z,95812.06
2022-10-25T21:36:51.170Z,95815.25
2022-10-25T21:39:24.064Z,95815.25
2022-10-25T21:41:54.974Z,95755.59
2022-10-25T21:44:23.666Z,95812.81
2022-10-25T21:46:52.036Z,95813.56
2022-10-25T21:49:20.774Z,95783.59
2022-10-25T21:51:49.131Z,95811.97
2022-10-25T21:54:17.546Z,95812.50
2022-10-25T21:56:45.878Z,95786.06
2022-10-25T21:59:15.687Z,95783.09
2022-10-25T22:01:44.104Z,95812.50
2022-10-25T22:04:12.587Z,95810.84
2022-10-25T22:06:40.931Z,95804.91
2022-10-25T22:09:10.023Z,95810.25
2022-10-25T22:11:41.177Z,95804.88
2022-10-25T22:14:12.147Z,95804.81
2022-10-25T22:16:42.077Z,95804.81
2022-10-25T22:19:15.996Z,95800.53
2022-10-25T22:21:45.503Z,95768.91
2022-10-25T22:24:14.527Z,95798.59
2022-10-25T22:26:45.277Z,95799.91
2022-10-25T22:29:15.341Z,95798.56
2022-10-25T22:31:45.103Z,95803.13
2022-10-25T22:34:13.504Z,95792.63
2022-10-25T22:36:43.154Z,95787.00
2022-10-25T22:39:11.676Z,95720.53
2022-10-25T22:41:40.032Z,95787.50
2022-10-25T22:44:08.454Z,95784.28
2022-10-25T22:46:37.679Z,95791.78
2022-10-25T22:49:09.965Z,95794.44
2022-10-25T22:51:39.919Z,95790.13
2022-10-25T22:54:08.747Z,95791.22
2022-10-25T22:56:37.231Z,95792.53
2022-10-25T22:59:07.391Z,95788.47
2022-10-25T23:01:37.965Z,95707.44
2022-10-25T23:04:10.190Z,95789.53
2022-10-25T23:06:40.845Z,95781.63
2022-10-25T23:09:11.882Z,95791.34
2022-10-25T23:11:42.264Z,95786.78
2022-10-25T23:14:14.936Z,95787.88
2022-10-25T23:16:45.913Z,95722.00
2022-10-25T23:19:15.989Z,95748.69
2022-10-25T23:21:44.674Z,95790.03
2022-10-25T23:24:12.997Z,95795.41
2022-10-25T23:26:42.926Z,95803.47
2022-10-25T23:29:13.254Z,95800.78
2022-10-25T23:31:41.640Z,95736.47
2022-10-25T23:34:11.013Z,95783.03
2022-10-25T23:36:40.762Z,95786.25
2022-10-25T23:39:09.543Z,95758.88
2022-10-25T23:41:38.558Z,95787.06
2022-10-25T23:44:06.945Z,95793.25
2022-10-25T23:46:35.684Z,95788.41
2022-10-25T23:49:04.018Z,95772.69
2022-10-25T23:51:32.426Z,95765.66
2022-10-25T23:54:04.007Z,95791.31
2022-10-25T23:56:33.216Z,95785.63
2022-10-25T23:59:01.972Z,95788.84
